sensor_id;sensor_type;location;lat;lon;timestamp;pressure;altitude;pressure_sealevel;temperature;humidity
73748;BME280;62056;52.130;5.428;2023-07-13T00:00:31;101542.88;;;18.72;58.23
73748;BME280;62056;52.130;5.428;2023-07-13T00:02:59;101546.53;;;18.67;58.47
73748;BME280;62056;52.130;5.428;2023-07-13T00:05:27;101537.22;;;18.65;58.39
73748;BME280;62056;52.130;5.428;2023-07-13T00:07:54;101542.59;;;18.65;58.69
73748;BME280;62056;52.130;5.428;2023-07-13T00:10:22;101538.16;;;18.60;58.72
73748;BME280;62056;52.130;5.428;2023-07-13T00:12:49;101538.50;;;18.58;58.82
73748;BME280;62056;52.130;5.428;2023-07-13T00:15:19;101546.13;;;18.56;58.88
73748;BME280;62056;52.130;5.428;2023-07-13T00:17:54;101537.41;;;18.51;59.90
73748;BME280;62056;52.130;5.428;2023-07-13T00:20:25;101541.56;;;18.48;60.20
73748;BME280;62056;52.130;5.428;2023-07-13T00:22:53;101544.09;;;18.45;59.66
73748;BME280;62056;52.130;5.428;2023-07-13T00:25:24;101545.84;;;18.40;60.04
73748;BME280;62056;52.130;5.428;2023-07-13T00:27:56;101542.69;;;18.38;60.13
73748;BME280;62056;52.130;5.428;2023-07-13T00:30:24;101546.50;;;18.37;60.32
73748;BME280;62056;52.130;5.428;2023-07-13T00:32:52;101540.97;;;18.34;59.75
73748;BME280;62056;52.130;5.428;2023-07-13T00:35:38;101544.28;;;18.31;60.02
73748;BME280;62056;52.130;5.428;2023-07-13T00:38:08;101549.19;;;18.29;60.16
73748;BME280;62056;52.130;5.428;2023-07-13T00:40:35;101542.09;;;18.24;60.58
73748;BME280;62056;52.130;5.428;2023-07-13T00:43:04;101534.97;;;18.19;60.25
73748;BME280;62056;52.130;5.428;2023-07-13T00:48:00;101538.31;;;18.16;60.20
73748;BME280;62056;52.130;5.428;2023-07-13T00:50:27;101534.34;;;18.14;60.30
73748;BME280;62056;52.130;5.428;2023-07-13T00:52:55;101542.28;;;18.10;61.03
73748;BME280;62056;52.130;5.428;2023-07-13T00:55:24;101537.69;;;18.11;61.43
73748;BME280;62056;52.130;5.428;2023-07-13T00:57:59;101545.63;;;18.07;60.99
73748;BME280;62056;52.130;5.428;2023-07-13T01:00:26;101543.56;;;18.04;60.89
73748;BME280;62056;52.130;5.428;2023-07-13T01:03:03;101541.50;;;18.01;61.48
73748;BME280;62056;52.130;5.428;2023-07-13T01:05:33;101534.41;;;17.96;61.23
73748;BME280;62056;52.130;5.428;2023-07-13T01:08:03;101542.00;;;17.94;62.47
73748;BME280;62056;52.130;5.428;2023-07-13T01:10:33;101537.72;;;17.93;61.50
73748;BME280;62056;52.130;5.428;2023-07-13T01:13:07;101532.19;;;17.90;61.77
73748;BME280;62056;52.130;5.428;2023-07-13T01:15:43;101537.72;;;17.85;61.52
73748;BME280;62056;52.130;5.428;2023-07-13T01:18:15;101539.13;;;17.82;61.56
73748;BME280;62056;52.130;5.428;2023-07-13T01:21:00;101544.03;;;17.80;62.33
73748;BME280;62056;52.130;5.428;2023-07-13T01:23:33;101546.09;;;17.74;61.80
73748;BME280;62056;52.130;5.428;2023-07-13T01:26:03;101551.78;;;17.73;62.15
73748;BME280;62056;52.130;5.428;2023-07-13T01:28:30;101553.22;;;17.70;62.01
73748;BME280;62056;52.130;5.428;2023-07-13T01:30:58;101548.47;;;17.67;62.20
73748;BME280;62056;52.130;5.428;2023-07-13T01:33:26;101546.88;;;17.66;62.39
73748;BME280;62056;52.130;5.428;2023-07-13T01:35:55;101545.16;;;17.62;62.24
73748;BME280;62056;52.130;5.428;2023-07-13T01:38:26;101553.69;;;17.55;63.52
73748;BME280;62056;52.130;5.428;2023-07-13T01:40:53;101548.47;;;17.50;62.95
73748;BME280;62056;52.130;5.428;2023-07-13T01:43:20;101547.19;;;17.47;63.50
73748;BME280;62056;52.130;5.428;2023-07-13T01:45:48;101551.63;;;17.43;63.66
73748;BME280;62056;52.130;5.428;2023-07-13T01:48:24;101549.88;;;17.38;63.50
73748;BME280;62056;52.130;5.428;2023-07-13T01:50:51;101541.34;;;17.36;63.66
73748;BME280;62056;52.130;5.428;2023-07-13T01:53:18;101549.72;;;17.35;63.55
73748;BME280;62056;52.130;5.428;2023-07-13T01:55:45;101558.72;;;17.30;63.45
73748;BME280;62056;52.130;5.428;2023-07-13T01:58:12;101545.59;;;17.29;64.27
73748;BME280;62056;52.130;5.428;2023-07-13T02:00:42;101556.34;;;17.29;64.10
73748;BME280;62056;52.130;5.428;2023-07-13T02:03:09;101553.50;;;17.25;63.69
73748;BME280;62056;52.130;5.428;2023-07-13T02:05:36;101556.34;;;17.20;63.85
73748;BME280;62056;52.130;5.428;2023-07-13T02:08:06;101550.47;;;17.18;63.92
73748;BME280;62056;52.130;5.428;2023-07-13T02:10:34;101556.50;;;17.15;63.88
73748;BME280;62056;52.130;5.428;2023-07-13T02:13:01;101556.63;;;17.10;64.24
73748;BME280;62056;52.130;5.428;2023-07-13T02:15:28;101568.00;;;17.07;64.35
73748;BME280;62056;52.130;5.428;2023-07-13T02:18:12;101571.00;;;17.05;64.23
73748;BME280;62056;52.130;5.428;2023-07-13T02:20:43;101570.53;;;17.03;64.82
73748;BME280;62056;52.130;5.428;2023-07-13T02:23:12;101566.88;;;16.99;64.29
73748;BME280;62056;52.130;5.428;2023-07-13T02:25:39;101571.47;;;16.98;64.87
73748;BME280;62056;52.130;5.428;2023-07-13T02:28:06;101572.88;;;16.96;65.00
73748;BME280;62056;52.130;5.428;2023-07-13T02:30:38;101562.94;;;16.96;65.22
73748;BME280;62056;52.130;5.428;2023-07-13T02:33:05;101570.03;;;16.92;65.00
73748;BME280;62056;52.130;5.428;2023-07-13T02:35:32;101562.56;;;16.89;64.94
73748;BME280;62056;52.130;5.428;2023-07-13T02:37:59;101565.25;;;16.89;65.26
73748;BME280;62056;52.130;5.428;2023-07-13T02:40:32;101571.25;;;16.86;64.87
73748;BME280;62056;52.130;5.428;2023-07-13T02:43:02;101573.47;;;16.84;64.92
73748;BME280;62056;52.130;5.428;2023-07-13T02:45:37;101566.03;;;16.81;65.33
73748;BME280;62056;52.130;5.428;2023-07-13T02:48:06;101570.31;;;16.82;65.16
73748;BME280;62056;52.130;5.428;2023-07-13T02:50:34;101564.72;;;16.78;65.12
73748;BME280;62056;52.130;5.428;2023-07-13T02:53:01;101566.13;;;16.76;65.54
73748;BME280;62056;52.130;5.428;2023-07-13T02:55:27;101562.19;;;16.73;65.92
73748;BME280;62056;52.130;5.428;2023-07-13T02:57:54;101571.19;;;16.69;65.53
73748;BME280;62056;52.130;5.428;2023-07-13T03:00:26;101569.56;;;16.68;65.87
73748;BME280;62056;52.130;5.428;2023-07-13T03:02:54;101570.69;;;16.67;66.43
73748;BME280;62056;52.130;5.428;2023-07-13T03:05:24;101572.91;;;16.65;66.00
73748;BME280;62056;52.130;5.428;2023-07-13T03:07:51;101577.78;;;16.63;66.16
73748;BME280;62056;52.130;5.428;2023-07-13T03:10:21;101579.66;;;16.62;66.81
73748;BME280;62056;52.130;5.428;2023-07-13T03:12:48;101588.03;;;16.61;65.78
73748;BME280;62056;52.130;5.428;2023-07-13T03:15:14;101582.31;;;16.53;65.89
73748;BME280;62056;52.130;5.428;2023-07-13T03:17:43;101580.25;;;16.50;66.71
73748;BME280;62056;52.130;5.428;2023-07-13T03:20:10;101575.47;;;16.47;66.97
73748;BME280;62056;52.130;5.428;2023-07-13T03:22:45;101579.28;;;16.46;67.18
73748;BME280;62056;52.130;5.428;2023-07-13T03:25:13;101581.00;;;16.42;67.62
73748;BME280;62056;52.130;5.428;2023-07-13T03:27:42;101579.72;;;16.39;67.63
73748;BME280;62056;52.130;5.428;2023-07-13T03:30:09;101583.50;;;16.38;67.58
73748;BME280;62056;52.130;5.428;2023-07-13T03:32:37;101590.28;;;16.36;67.90
73748;BME280;62056;52.130;5.428;2023-07-13T03:35:04;101603.50;;;16.32;67.71
73748;BME280;62056;52.130;5.428;2023-07-13T03:37:32;101600.81;;;16.32;68.18
73748;BME280;62056;52.130;5.428;2023-07-13T03:40:05;101597.66;;;16.30;68.33
73748;BME280;62056;52.130;5.428;2023-07-13T03:42:38;101604.91;;;16.30;68.65
73748;BME280;62056;52.130;5.428;2023-07-13T03:45:08;101596.84;;;16.30;69.24
73748;BME280;62056;52.130;5.428;2023-07-13T03:47:36;101604.13;;;16.29;68.45
73748;BME280;62056;52.130;5.428;2023-07-13T03:50:07;101606.81;;;16.29;69.43
73748;BME280;62056;52.130;5.428;2023-07-13T03:52:37;101605.22;;;16.28;69.29
73748;BME280;62056;52.130;5.428;2023-07-13T03:55:04;101615.16;;;16.28;68.74
73748;BME280;62056;52.130;5.428;2023-07-13T03:57:33;101614.66;;;16.26;68.92
73748;BME280;62056;52.130;5.428;2023-07-13T04:00:07;101622.22;;;16.24;69.51
73748;BME280;62056;52.130;5.428;2023-07-13T04:02:37;101621.75;;;16.22;69.65
73748;BME280;62056;52.130;5.428;2023-07-13T04:05:04;101619.34;;;16.20;70.29
73748;BME280;62056;52.130;5.428;2023-07-13T04:07:31;101625.22;;;16.22;69.81
73748;BME280;62056;52.130;5.428;2023-07-13T04:09:58;101622.81;;;16.21;70.25
73748;BME280;62056;52.130;5.428;2023-07-13T04:12:26;101628.69;;;16.23;70.27
73748;BME280;62056;52.130;5.428;2023-07-13T04:14:56;101626.63;;;16.19;70.32
73748;BME280;62056;52.130;5.428;2023-07-13T04:17:23;101636.09;;;16.17;70.49
73748;BME280;62056;52.130;5.428;2023-07-13T04:19:54;101635.75;;;16.18;70.40
73748;BME280;62056;52.130;5.428;2023-07-13T04:22:21;101638.44;;;16.18;71.15
73748;BME280;62056;52.130;5.428;2023-07-13T04:24:48;101635.47;;;16.20;71.88
73748;BME280;62056;52.130;5.428;2023-07-13T04:27:19;101635.94;;;16.22;70.81
73748;BME280;62056;52.130;5.428;2023-07-13T04:29:50;101637.06;;;16.21;71.00
73748;BME280;62056;52.130;5.428;2023-07-13T04:32:17;101637.34;;;16.19;71.06
73748;BME280;62056;52.130;5.428;2023-07-13T04:34:44;101644.50;;;16.24;71.32
73748;BME280;62056;52.130;5.428;2023-07-13T04:37:11;101643.41;;;16.25;72.08
73748;BME280;62056;52.130;5.428;2023-07-13T04:39:43;101641.81;;;16.24;72.00
73748;BME280;62056;52.130;5.428;2023-07-13T04:42:10;101646.09;;;16.25;72.95
73748;BME280;62056;52.130;5.428;2023-07-13T04:44:39;101643.56;;;16.29;72.71
73748;BME280;62056;52.130;5.428;2023-07-13T04:47:09;101637.59;;;16.32;72.34
73748;BME280;62056;52.130;5.428;2023-07-13T04:49:36;101638.38;;;16.32;72.62
73748;BME280;62056;52.130;5.428;2023-07-13T04:52:03;101646.94;;;16.34;73.01
73748;BME280;62056;52.130;5.428;2023-07-13T04:54:35;101640.63;;;16.39;72.84
73748;BME280;62056;52.130;5.428;2023-07-13T04:57:04;101642.25;;;16.40;72.68
73748;BME280;62056;52.130;5.428;2023-07-13T04:59:33;101640.53;;;16.44;73.32
73748;BME280;62056;52.130;5.428;2023-07-13T05:02:01;101645.28;;;16.47;73.30
73748;BME280;62056;52.130;5.428;2023-07-13T05:04:30;101640.88;;;16.51;73.60
73748;BME280;62056;52.130;5.428;2023-07-13T05:06:57;101642.63;;;16.56;73.55
73748;BME280;62056;52.130;5.428;2023-07-13T05:09:24;101648.97;;;16.60;73.46
73748;BME280;62056;52.130;5.428;2023-07-13T05:11:51;101646.47;;;16.64;73.64
73748;BME280;62056;52.130;5.428;2023-07-13T05:14:20;101651.25;;;16.67;73.58
73748;BME280;62056;52.130;5.428;2023-07-13T05:16:47;101659.16;;;16.72;73.85
73748;BME280;62056;52.130;5.428;2023-07-13T05:19:14;101656.03;;;16.78;74.83
73748;BME280;62056;52.130;5.428;2023-07-13T05:21:57;101653.25;;;16.84;74.22
73748;BME280;62056;52.130;5.428;2023-07-13T05:24:28;101656.09;;;16.87;74.02
73748;BME280;62056;52.130;5.428;2023-07-13T05:26:58;101661.97;;;16.89;74.08
73748;BME280;62056;52.130;5.428;2023-07-13T05:29:28;101674.50;;;16.94;74.35
73748;BME280;62056;52.130;5.428;2023-07-13T05:32:01;101656.47;;;16.94;75.08
73748;BME280;62056;52.130;5.428;2023-07-13T05:34:28;101668.50;;;16.97;74.83
73748;BME280;62056;52.130;5.428;2023-07-13T05:36:55;101675.94;;;17.00;74.63
73748;BME280;62056;52.130;5.428;2023-07-13T05:39:28;101668.03;;;17.04;75.06
73748;BME280;62056;52.130;5.428;2023-07-13T05:41:56;101672.47;;;17.08;75.13
73748;BME280;62056;52.130;5.428;2023-07-13T05:44:24;101676.59;;;17.14;75.03
73748;BME280;62056;52.130;5.428;2023-07-13T05:46:51;101684.06;;;17.17;74.93
73748;BME280;62056;52.130;5.428;2023-07-13T05:49:20;101681.88;;;17.19;74.97
73748;BME280;62056;52.130;5.428;2023-07-13T05:51:49;101681.22;;;17.23;75.20
73748;BME280;62056;52.130;5.428;2023-07-13T05:54:16;101694.84;;;17.26;74.97
73748;BME280;62056;52.130;5.428;2023-07-13T05:56:47;101685.84;;;17.31;75.41
73748;BME280;62056;52.130;5.428;2023-07-13T05:59:15;101685.72;;;17.36;75.05
73748;BME280;62056;52.130;5.428;2023-07-13T06:01:42;101684.28;;;17.38;75.07
73748;BME280;62056;52.130;5.428;2023-07-13T06:04:09;101693.94;;;17.39;74.90
73748;BME280;62056;52.130;5.428;2023-07-13T06:06:36;101698.41;;;17.44;75.34
73748;BME280;62056;52.130;5.428;2023-07-13T06:09:03;101693.66;;;17.50;75.14
73748;BME280;62056;52.130;5.428;2023-07-13T06:11:33;101705.38;;;17.54;75.67
73748;BME280;62056;52.130;5.428;2023-07-13T06:14:07;101707.44;;;17.57;75.39
73748;BME280;62056;52.130;5.428;2023-07-13T06:16:39;101713.78;;;17.61;75.52
73748;BME280;62056;52.130;5.428;2023-07-13T06:19:09;101721.22;;;17.64;75.31
73748;BME280;62056;52.130;5.428;2023-07-13T06:21:36;101713.63;;;17.66;75.79
73748;BME280;62056;52.130;5.428;2023-07-13T06:24:03;101719.19;;;17.70;75.56
73748;BME280;62056;52.130;5.428;2023-07-13T06:26:31;101718.72;;;17.76;75.67
73748;BME280;62056;52.130;5.428;2023-07-13T06:29:00;101727.75;;;17.80;75.84
73748;BME280;62056;52.130;5.428;2023-07-13T06:31:27;101727.94;;;17.84;75.60
73748;BME280;62056;52.130;5.428;2023-07-13T06:33:55;101727.19;;;17.92;75.83
73748;BME280;62056;52.130;5.428;2023-07-13T06:36:23;101728.31;;;18.00;76.17
73748;BME280;62056;52.130;5.428;2023-07-13T06:38:58;101728.94;;;18.14;76.54
73748;BME280;62056;52.130;5.428;2023-07-13T06:41:25;101726.09;;;18.28;76.63
73748;BME280;62056;52.130;5.428;2023-07-13T06:43:52;101730.03;;;18.39;76.59
73748;BME280;62056;52.130;5.428;2023-07-13T06:46:22;101730.53;;;18.50;76.82
73748;BME280;62056;52.130;5.428;2023-07-13T06:48:52;101733.03;;;18.64;77.25
73748;BME280;62056;52.130;5.428;2023-07-13T06:51:22;101730.19;;;18.69;77.22
73748;BME280;62056;52.130;5.428;2023-07-13T06:54:02;101731.44;;;18.80;77.02
73748;BME280;62056;52.130;5.428;2023-07-13T06:56:33;101724.63;;;18.92;77.19
73748;BME280;62056;52.130;5.428;2023-07-13T06:59:04;101722.69;;;19.01;77.21
73748;BME280;62056;52.130;5.428;2023-07-13T07:01:48;101731.88;;;19.09;77.42
73748;BME280;62056;52.130;5.428;2023-07-13T07:04:16;101729.59;;;19.19;76.50
73748;BME280;62056;52.130;5.428;2023-07-13T07:06:54;101737.91;;;19.44;77.96
73748;BME280;62056;52.130;5.428;2023-07-13T07:09:25;101745.44;;;19.59;76.42
73748;BME280;62056;52.130;5.428;2023-07-13T07:12:00;101750.97;;;19.72;75.48
73748;BME280;62056;52.130;5.428;2023-07-13T07:14:31;101751.84;;;19.85;76.25
73748;BME280;62056;52.130;5.428;2023-07-13T07:17:13;101749.38;;;20.00;74.74
73748;BME280;62056;52.130;5.428;2023-07-13T07:22:39;101755.25;;;20.24;74.97
73748;BME280;62056;52.130;5.428;2023-07-13T07:25:13;101762.34;;;20.28;74.67
73748;BME280;62056;52.130;5.428;2023-07-13T07:27:41;101761.25;;;20.29;71.30
73748;BME280;62056;52.130;5.428;2023-07-13T07:30:42;101761.16;;;20.38;73.85
73748;BME280;62056;52.130;5.428;2023-07-13T07:33:14;101769.84;;;20.43;74.35
73748;BME280;62056;52.130;5.428;2023-07-13T07:35:58;101772.69;;;20.47;74.22
73748;BME280;62056;52.130;5.428;2023-07-13T07:38:33;101773.34;;;20.44;74.55
73748;BME280;62056;52.130;5.428;2023-07-13T07:41:04;101767.03;;;20.40;73.76
73748;BME280;62056;52.130;5.428;2023-07-13T07:43:35;101771.69;;;20.31;74.15
73748;BME280;62056;52.130;5.428;2023-07-13T07:46:31;101768.06;;;20.27;74.30
73748;BME280;62056;52.130;5.428;2023-07-13T07:49:17;101753.78;;;20.26;74.80
73748;BME280;62056;52.130;5.428;2023-07-13T07:51:50;101751.22;;;20.30;74.74
73748;BME280;62056;52.130;5.428;2023-07-13T07:54:18;101751.34;;;20.33;74.94
73748;BME280;62056;52.130;5.428;2023-07-13T07:57:05;101754.44;;;20.44;74.69
73748;BME280;62056;52.130;5.428;2023-07-13T07:59:36;101740.81;;;20.40;74.42
73748;BME280;62056;52.130;5.428;2023-07-13T08:02:12;101743.19;;;20.42;74.43
73748;BME280;62056;52.130;5.428;2023-07-13T08:04:59;101746.38;;;20.35;74.37
73748;BME280;62056;52.130;5.428;2023-07-13T08:07:38;101749.38;;;20.42;74.48
73748;BME280;62056;52.130;5.428;2023-07-13T08:10:08;101751.66;;;20.53;74.70
73748;BME280;62056;52.130;5.428;2023-07-13T08:12:49;101756.47;;;20.68;74.31
73748;BME280;62056;52.130;5.428;2023-07-13T08:15:21;101758.75;;;20.78;74.57
73748;BME280;62056;52.130;5.428;2023-07-13T08:17:49;101764.53;;;20.89;73.05
73748;BME280;62056;52.130;5.428;2023-07-13T08:20:16;101757.13;;;20.98;73.19
73748;BME280;62056;52.130;5.428;2023-07-13T08:22:44;101750.59;;;20.99;72.62
73748;BME280;62056;52.130;5.428;2023-07-13T08:25:11;101755.66;;;21.01;71.89
73748;BME280;62056;52.130;5.428;2023-07-13T08:27:40;101755.88;;;21.08;71.52
73748;BME280;62056;52.130;5.428;2023-07-13T08:30:09;101762.66;;;21.14;70.32
73748;BME280;62056;52.130;5.428;2023-07-13T08:32:40;101755.34;;;21.02;70.54
73748;BME280;62056;52.130;5.428;2023-07-13T08:35:10;101754.19;;;21.03;69.85
73748;BME280;62056;52.130;5.428;2023-07-13T08:37:38;101749.06;;;21.23;69.92
73748;BME280;62056;52.130;5.428;2023-07-13T08:40:14;101740.94;;;21.35;69.85
73748;BME280;62056;52.130;5.428;2023-07-13T08:42:45;101743.44;;;21.53;69.20
73748;BME280;62056;52.130;5.428;2023-07-13T08:45:45;101755.84;;;21.66;64.95
73748;BME280;62056;52.130;5.428;2023-07-13T08:48:27;101744.81;;;21.71;63.41
73748;BME280;62056;52.130;5.428;2023-07-13T08:53:49;101772.50;;;21.93;64.72
73748;BME280;62056;52.130;5.428;2023-07-13T08:56:23;101778.81;;;22.09;64.71
73748;BME280;62056;52.130;5.428;2023-07-13T08:59:11;101771.75;;;22.20;62.68
73748;BME280;62056;52.130;5.428;2023-07-13T09:02:04;101783.78;;;22.07;61.21
73748;BME280;62056;52.130;5.428;2023-07-13T09:04:45;101782.22;;;21.81;61.32
73748;BME280;62056;52.130;5.428;2023-07-13T09:12:44;101791.38;;;21.52;61.43
73748;BME280;62056;52.130;5.428;2023-07-13T09:15:35;101782.69;;;21.47;62.31
73748;BME280;62056;52.130;5.428;2023-07-13T09:18:08;101784.56;;;21.34;62.87
73748;BME280;62056;52.130;5.428;2023-07-13T09:20:46;101782.63;;;21.22;64.58
73748;BME280;62056;52.130;5.428;2023-07-13T09:23:19;101777.44;;;21.17;66.05
73748;BME280;62056;52.130;5.428;2023-07-13T09:25:54;101772.38;;;21.15;66.51
73748;BME280;62056;52.130;5.428;2023-07-13T09:28:29;101780.03;;;21.13;66.26
73748;BME280;62056;52.130;5.428;2023-07-13T09:33:40;101783.41;;;21.22;66.50
73748;BME280;62056;52.130;5.428;2023-07-13T09:38:47;101772.41;;;21.40;66.76
73748;BME280;62056;52.130;5.428;2023-07-13T09:44:10;101782.25;;;21.69;65.86
73748;BME280;62056;52.130;5.428;2023-07-13T09:46:44;101769.38;;;21.78;62.25
73748;BME280;62056;52.130;5.428;2023-07-13T09:49:33;101782.22;;;21.94;63.95
73748;BME280;62056;52.130;5.428;2023-07-13T09:52:06;101795.53;;;21.87;62.40
73748;BME280;62056;52.130;5.428;2023-07-13T09:54:37;101805.69;;;21.65;63.19
73748;BME280;62056;52.130;5.428;2023-07-13T09:57:13;101835.28;;;21.37;64.73
73748;BME280;62056;52.130;5.428;2023-07-13T09:59:43;101843.63;;;20.98;66.26
73748;BME280;62056;52.130;5.428;2023-07-13T10:02:33;101832.84;;;20.56;68.24
73748;BME280;62056;52.130;5.428;2023-07-13T10:05:05;101827.84;;;20.25;68.64
73748;BME280;62056;52.130;5.428;2023-07-13T10:07:39;101833.78;;;20.10;69.68
73748;BME280;62056;52.130;5.428;2023-07-13T10:10:15;101832.06;;;20.05;69.27
73748;BME280;62056;52.130;5.428;2023-07-13T10:12:43;101825.94;;;19.96;70.41
73748;BME280;62056;52.130;5.428;2023-07-13T10:15:16;101826.22;;;20.03;71.32
73748;BME280;62056;52.130;5.428;2023-07-13T10:17:51;101829.47;;;20.17;70.82
73748;BME280;62056;52.130;5.428;2023-07-13T10:20:21;101831.31;;;20.26;71.10
73748;BME280;62056;52.130;5.428;2023-07-13T10:23:09;101832.38;;;20.33;72.00
73748;BME280;62056;52.130;5.428;2023-07-13T10:25:57;101830.59;;;20.37;71.90
73748;BME280;62056;52.130;5.428;2023-07-13T10:28:54;101832.78;;;20.44;72.33
73748;BME280;62056;52.130;5.428;2023-07-13T10:31:24;101842.38;;;20.54;72.31
73748;BME280;62056;52.130;5.428;2023-07-13T10:33:54;101828.97;;;20.66;72.39
73748;BME280;62056;52.130;5.428;2023-07-13T10:38:59;101830.13;;;20.98;71.78
73748;BME280;62056;52.130;5.428;2023-07-13T10:41:31;101826.19;;;21.08;69.88
73748;BME280;62056;52.130;5.428;2023-07-13T10:44:00;101828.47;;;21.18;71.02
73748;BME280;62056;52.130;5.428;2023-07-13T10:46:28;101832.66;;;21.28;70.36
73748;BME280;62056;52.130;5.428;2023-07-13T10:49:02;101833.34;;;21.25;70.72
73748;BME280;62056;52.130;5.428;2023-07-13T10:51:32;101834.91;;;21.26;70.42
73748;BME280;62056;52.130;5.428;2023-07-13T10:54:11;101837.53;;;21.35;69.66
73748;BME280;62056;52.130;5.428;2023-07-13T10:56:49;101841.06;;;21.48;70.10
73748;BME280;62056;52.130;5.428;2023-07-13T10:59:27;101841.00;;;21.56;68.97
73748;BME280;62056;52.130;5.428;2023-07-13T11:02:27;101833.44;;;21.74;68.58
73748;BME280;62056;52.130;5.428;2023-07-13T11:04:56;101830.84;;;21.78;67.62
73748;BME280;62056;52.130;5.428;2023-07-13T11:07:30;101845.16;;;21.91;67.13
73748;BME280;62056;52.130;5.428;2023-07-13T11:10:03;101840.19;;;22.05;66.15
73748;BME280;62056;52.130;5.428;2023-07-13T11:12:53;101849.53;;;22.32;63.85
73748;BME280;62056;52.130;5.428;2023-07-13T11:15:39;101854.34;;;22.51;63.52
73748;BME280;62056;52.130;5.428;2023-07-13T11:18:21;101846.81;;;22.73;61.97
73748;BME280;62056;52.130;5.428;2023-07-13T11:21:13;101850.75;;;22.88;59.38
73748;BME280;62056;52.130;5.428;2023-07-13T11:24:16;101843.50;;;22.92;59.99
73748;BME280;62056;52.130;5.428;2023-07-13T11:29:33;101845.06;;;22.93;59.97
73748;BME280;62056;52.130;5.428;2023-07-13T11:32:25;101839.81;;;23.00;58.86
73748;BME280;62056;52.130;5.428;2023-07-13T11:34:54;101838.94;;;22.96;58.40
73748;BME280;62056;52.130;5.428;2023-07-13T11:37:21;101841.72;;;22.83;57.48
73748;BME280;62056;52.130;5.428;2023-07-13T11:39:51;101845.69;;;22.74;58.06
73748;BME280;62056;52.130;5.428;2023-07-13T11:42:20;101849.94;;;22.59;59.34
73748;BME280;62056;52.130;5.428;2023-07-13T11:44:49;101862.97;;;22.41;61.77
73748;BME280;62056;52.130;5.428;2023-07-13T11:47:40;101872.00;;;22.20;63.21
73748;BME280;62056;52.130;5.428;2023-07-13T11:50:18;101883.06;;;22.03;63.30
73748;BME280;62056;52.130;5.428;2023-07-13T11:52:45;101869.66;;;21.94;63.59
73748;BME280;62056;52.130;5.428;2023-07-13T11:55:16;101878.56;;;21.82;63.35
73748;BME280;62056;52.130;5.428;2023-07-13T11:57:47;101880.34;;;21.78;63.22
73748;BME280;62056;52.130;5.428;2023-07-13T12:00:21;101886.66;;;21.82;63.17
73748;BME280;62056;52.130;5.428;2023-07-13T12:02:51;101874.38;;;21.85;63.11
73748;BME280;62056;52.130;5.428;2023-07-13T12:05:19;101883.31;;;21.86;63.48
73748;BME280;62056;52.130;5.428;2023-07-13T12:07:48;101875.72;;;21.79;63.79
73748;BME280;62056;52.130;5.428;2023-07-13T12:10:27;101871.00;;;21.76;63.82
73748;BME280;62056;52.130;5.428;2023-07-13T12:13:08;101875.06;;;21.82;64.54
73748;BME280;62056;52.130;5.428;2023-07-13T12:15:40;101878.22;;;21.84;64.24
73748;BME280;62056;52.130;5.428;2023-07-13T12:18:21;101884.53;;;21.88;64.76
73748;BME280;62056;52.130;5.428;2023-07-13T12:21:19;101869.19;;;21.92;64.47
73748;BME280;62056;52.130;5.428;2023-07-13T12:23:50;101869.66;;;21.94;64.80
73748;BME280;62056;52.130;5.428;2023-07-13T12:26:26;101870.88;;;21.97;64.76
73748;BME280;62056;52.130;5.428;2023-07-13T12:28:54;101879.13;;;22.00;65.18
73748;BME280;62056;52.130;5.428;2023-07-13T12:34:06;101869.19;;;22.05;64.82
73748;BME280;62056;52.130;5.428;2023-07-13T12:36:35;101872.34;;;22.07;64.51
73748;BME280;62056;52.130;5.428;2023-07-13T12:41:52;101871.81;;;22.26;64.93
73748;BME280;62056;52.130;5.428;2023-07-13T12:44:27;101869.97;;;22.42;64.50
73748;BME280;62056;52.130;5.428;2023-07-13T12:46:58;101862.81;;;22.50;63.37
73748;BME280;62056;52.130;5.428;2023-07-13T12:49:30;101862.47;;;22.51;63.72
73748;BME280;62056;52.130;5.428;2023-07-13T12:52:03;101864.72;;;22.61;62.98
73748;BME280;62056;52.130;5.428;2023-07-13T12:54:31;101870.31;;;22.69;60.53
73748;BME280;62056;52.130;5.428;2023-07-13T12:56:59;101875.47;;;22.46;60.30
73748;BME280;62056;52.130;5.428;2023-07-13T12:59:34;101874.25;;;22.43;60.53
73748;BME280;62056;52.130;5.428;2023-07-13T13:02:21;101864.00;;;22.64;58.43
73748;BME280;62056;52.130;5.428;2023-07-13T13:04:50;101864.56;;;22.70;60.02
73748;BME280;62056;52.130;5.428;2023-07-13T13:07:17;101861.63;;;22.75;59.71
73748;BME280;62056;52.130;5.428;2023-07-13T13:09:47;101868.91;;;22.87;59.55
73748;BME280;62056;52.130;5.428;2023-07-13T13:12:14;101872.16;;;22.93;58.89
73748;BME280;62056;52.130;5.428;2023-07-13T13:14:46;101869.72;;;22.88;58.34
73748;BME280;62056;52.130;5.428;2023-07-13T13:17:22;101869.03;;;22.91;58.42
73748;BME280;62056;52.130;5.428;2023-07-13T13:19:51;101867.53;;;22.93;58.51
73748;BME280;62056;52.130;5.428;2023-07-13T13:22:22;101875.53;;;23.02;58.10
73748;BME280;62056;52.130;5.428;2023-07-13T13:24:53;101866.72;;;23.05;57.15
73748;BME280;62056;52.130;5.428;2023-07-13T13:27:25;101866.47;;;23.10;56.96
73748;BME280;62056;52.130;5.428;2023-07-13T13:30:13;101877.84;;;23.16;57.15
73748;BME280;62056;52.130;5.428;2023-07-13T13:32:43;101874.47;;;23.19;56.38
73748;BME280;62056;52.130;5.428;2023-07-13T13:35:14;101869.09;;;23.22;56.88
73748;BME280;62056;52.130;5.428;2023-07-13T13:37:42;101882.34;;;23.24;56.18
73748;BME280;62056;52.130;5.428;2023-07-13T13:40:20;101873.66;;;23.18;54.76
73748;BME280;62056;52.130;5.428;2023-07-13T13:42:54;101878.91;;;23.11;54.29
73748;BME280;62056;52.130;5.428;2023-07-13T13:45:35;101879.94;;;23.07;54.99
73748;BME280;62056;52.130;5.428;2023-07-13T13:48:05;101882.75;;;22.98;54.39